createdAt,value
2023-01-01T00:01:40.786Z,3.10
2023-01-01T00:06:47.094Z,2.30
2023-01-01T00:11:49.854Z,2.20
2023-01-01T00:16:55.493Z,2.20
2023-01-01T00:22:02.063Z,2.50
2023-01-01T00:27:08.490Z,2.40
2023-01-01T00:32:15.430Z,2.70
2023-01-01T00:37:21.923Z,2.90
2023-01-01T00:42:24.705Z,2.70
2023-01-01T00:47:27.446Z,2.90
2023-01-01T00:52:30.167Z,3.00
2023-01-01T00:57:32.991Z,2.80
2023-01-01T01:02:36.267Z,2.90
2023-01-01T01:07:40.021Z,2.60
2023-01-01T01:12:42.977Z,3.00
2023-01-01T01:17:45.868Z,2.90
2023-01-01T01:22:48.657Z,2.80
2023-01-01T01:27:51.374Z,3.60
2023-01-01T01:32:54.214Z,3.30
2023-01-01T01:37:56.987Z,3.60
2023-01-01T01:42:59.698Z,3.80
2023-01-01T01:48:02.651Z,3.80
2023-01-01T01:53:11.040Z,2.90
2023-01-01T01:58:16.170Z,3.60
2023-01-01T02:03:30.005Z,3.00
2023-01-01T02:08:34.089Z,2.80
2023-01-01T02:13:37.379Z,3.10
2023-01-01T02:18:49.114Z,2.90
2023-01-01T02:24:10.425Z,3.60
2023-01-01T02:29:40.479Z,3.30
2023-01-01T02:35:32.454Z,3.20
2023-01-01T02:40:43.050Z,3.60
2023-01-01T02:45:46.039Z,3.70
2023-01-01T02:50:48.866Z,4.00
2023-01-01T02:55:54.310Z,3.70
2023-01-01T03:01:11.103Z,3.20
2023-01-01T03:06:32.220Z,3.30
2023-01-01T03:11:51.282Z,3.10
2023-01-01T03:17:08.766Z,3.70
2023-01-01T03:22:17.307Z,3.70
2023-01-01T03:27:35.225Z,3.60
2023-01-01T03:33:01.390Z,3.40
2023-01-01T03:38:08.962Z,3.60
2023-01-01T03:43:28.013Z,3.40
2023-01-01T03:48:50.773Z,3.20
2023-01-01T03:53:58.008Z,3.80
2023-01-01T03:59:26.105Z,3.70
2023-01-01T04:04:29.110Z,3.30
2023-01-01T04:09:36.087Z,2.90
2023-01-01T04:14:42.742Z,3.70
2023-01-01T04:19:50.054Z,3.50
2023-01-01T04:24:56.042Z,3.60
2023-01-01T04:29:58.811Z,2.90
2023-01-01T04:35:01.580Z,3.10
2023-01-01T04:40:05.719Z,3.20
2023-01-01T04:45:09.232Z,3.40
2023-01-01T04:50:12.016Z,3.00
2023-01-01T04:55:14.823Z,3.00
2023-01-01T05:00:17.800Z,3.30
2023-01-01T05:05:20.779Z,3.50
2023-01-01T05:10:23.528Z,3.20
2023-01-01T05:15:26.241Z,2.70
2023-01-01T05:20:28.952Z,2.90
2023-01-01T05:25:31.689Z,3.50
2023-01-01T05:30:34.419Z,3.60
2023-01-01T05:35:37.151Z,2.90
2023-01-01T05:40:40.308Z,3.20
2023-01-01T05:45:44.285Z,2.80
2023-01-01T05:50:47.060Z,3.90
2023-01-01T05:55:54.064Z,2.90
2023-01-01T06:00:57.221Z,3.60
2023-01-01T06:06:04.660Z,3.20
2023-01-01T06:11:11.438Z,2.70
2023-01-01T06:21:19.748Z,3.00
2023-01-01T06:26:31.537Z,3.00
2023-01-01T06:31:40.365Z,2.70
2023-01-01T06:36:43.547Z,3.90
2023-01-01T06:41:46.298Z,2.70
2023-01-01T06:46:49.050Z,3.20
2023-01-01T06:51:51.792Z,3.50
2023-01-01T06:56:54.511Z,2.90
2023-01-01T07:01:57.314Z,2.70
2023-01-01T07:07:01.466Z,2.80
2023-01-01T07:12:04.423Z,2.70
2023-01-01T07:17:07.149Z,3.40
2023-01-01T07:22:11.005Z,3.10
2023-01-01T07:27:13.757Z,3.20
2023-01-01T07:32:16.475Z,2.90
2023-01-01T07:37:20.636Z,3.20
2023-01-01T07:42:23.411Z,3.50
2023-01-01T07:47:26.561Z,2.80
2023-01-01T07:52:29.274Z,3.20
2023-01-01T07:57:32.011Z,3.40
2023-01-01T08:02:34.976Z,2.90
2023-01-01T08:07:38.485Z,2.80
2023-01-01T08:12:41.792Z,3.40
2023-01-01T08:17:47.151Z,3.10
2023-01-01T08:22:50.227Z,2.80
2023-01-01T08:27:53.000Z,3.50
2023-01-01T08:32:55.786Z,3.10
2023-01-01T08:37:58.750Z,3.10
2023-01-01T08:43:01.496Z,2.80
2023-01-01T08:48:04.547Z,3.30
2023-01-01T08:53:07.337Z,3.10
2023-01-01T08:58:10.060Z,3.60
2023-01-01T09:03:12.903Z,3.20
2023-01-01T09:08:16.557Z,3.20
2023-01-01T09:13:22.126Z,3.30
2023-01-01T09:18:24.878Z,3.50
2023-01-01T09:23:27.677Z,3.30
2023-01-01T09:28:31.041Z,3.50
2023-01-01T09:33:34.612Z,3.90
2023-01-01T09:38:37.365Z,4.10
2023-01-01T09:44:18.772Z,3.90
2023-01-01T09:49:35.591Z,4.00
2023-01-01T09:54:43.828Z,3.10
2023-01-01T09:59:46.762Z,3.60
2023-01-01T10:05:26.847Z,3.90
2023-01-01T10:10:40.949Z,3.80
2023-01-01T10:15:57.117Z,4.10
2023-01-01T10:21:12.623Z,3.90
2023-01-01T10:26:18.762Z,3.70
2023-01-01T10:31:34.698Z,3.50
2023-01-01T10:41:40.693Z,3.50
2023-01-01T10:46:48.826Z,3.00
2023-01-01T10:51:54.119Z,3.70
2023-01-01T10:56:56.950Z,3.30
2023-01-01T11:02:21.781Z,3.10
2023-01-01T11:07:30.474Z,3.30
2023-01-01T11:13:04.386Z,3.30
2023-01-01T11:18:14.986Z,3.40
2023-01-01T11:23:39.561Z,3.20
2023-01-01T11:28:42.574Z,4.40
2023-01-01T11:33:50.949Z,3.20
2023-01-01T11:39:18.175Z,3.40
2023-01-01T11:44:40.041Z,3.40
2023-01-01T11:49:43.139Z,3.50
2023-01-01T11:54:47.573Z,3.10
2023-01-01T12:00:01.201Z,3.40
2023-01-01T12:05:42.546Z,3.20
2023-01-01T12:10:58.358Z,3.50
2023-01-01T12:16:27.117Z,3.60
2023-01-01T12:21:32.762Z,3.60
2023-01-01T12:26:47.419Z,3.40
2023-01-01T12:32:24.094Z,3.50
2023-01-01T12:37:38.715Z,3.10
2023-01-01T12:43:01.114Z,3.20
2023-01-01T12:48:43.315Z,3.20
2023-01-01T12:54:04.316Z,3.90
2023-01-01T12:59:32.261Z,3.50
2023-01-01T13:04:36.690Z,3.40
2023-01-01T13:09:45.304Z,3.40
2023-01-01T13:14:52.699Z,2.80
2023-01-01T13:20:15.098Z,3.40
2023-01-01T13:25:19.238Z,3.80
2023-01-01T13:30:38.268Z,3.50
2023-01-01T13:35:41.583Z,3.60
2023-01-01T13:40:51.491Z,3.70
2023-01-01T13:46:13.851Z,3.70
2023-01-01T13:52:05.246Z,4.10
2023-01-01T13:57:20.631Z,3.10
2023-01-01T14:02:31.324Z,3.80
2023-01-01T14:07:51.260Z,3.50
2023-01-01T14:13:16.466Z,3.40
2023-01-01T14:18:22.149Z,3.30
2023-01-01T14:23:41.600Z,4.30
2023-01-01T14:28:45.039Z,3.90
2023-01-01T14:33:48.571Z,4.20
2023-01-01T14:38:56.862Z,3.20
2023-01-01T14:44:24.727Z,3.70
2023-01-01T14:49:45.481Z,4.00
2023-01-01T14:54:48.673Z,3.20
2023-01-01T14:59:56.626Z,3.90
2023-01-01T15:05:27.687Z,3.50
2023-01-01T15:10:36.384Z,3.80
2023-01-01T15:15:45.300Z,3.30
2023-01-01T15:20:54.057Z,3.70
2023-01-01T15:25:56.894Z,3.60
2023-01-01T15:31:00.020Z,4.10
2023-01-01T15:36:04.064Z,4.40
2023-01-01T15:41:40.731Z,4.10
2023-01-01T15:46:49.216Z,4.40
2023-01-01T15:51:55.514Z,3.90
2023-01-01T15:56:58.414Z,4.50
2023-01-01T16:02:13.582Z,4.00
2023-01-01T16:07:23.505Z,4.20
2023-01-01T16:12:26.403Z,4.90
2023-01-01T16:17:29.209Z,4.70
2023-01-01T16:22:36.569Z,4.80
2023-01-01T16:27:39.855Z,6.80
2023-01-01T16:32:42.694Z,4.80
2023-01-01T16:37:45.479Z,4.50
2023-01-01T16:42:48.278Z,3.60
2023-01-01T16:47:51.316Z,4.10
2023-01-01T16:52:54.109Z,4.60
2023-01-01T16:58:21.209Z,4.00
2023-01-01T17:03:19.698Z,3.90
2023-01-01T17:08:23.001Z,4.10
2023-01-01T17:13:25.811Z,4.50
2023-01-01T17:18:55.135Z,4.90
2023-01-01T17:23:51.793Z,5.00
2023-01-01T17:29:00.288Z,5.40
2023-01-01T17:34:04.229Z,4.30
2023-01-01T17:39:07.363Z,4.80
2023-01-01T17:44:11.707Z,4.30
2023-01-01T17:49:14.639Z,5.20
2023-01-01T17:54:17.473Z,4.90
2023-01-01T17:59:20.291Z,4.20
2023-01-01T18:04:23.065Z,4.20
2023-01-01T18:09:25.925Z,4.50
2023-01-01T18:14:28.763Z,5.20
2023-01-01T18:19:32.467Z,4.10
2023-01-01T18:24:35.832Z,4.10
2023-01-01T18:29:38.621Z,4.40
2023-01-01T18:34:41.405Z,4.40
2023-01-01T18:39:44.259Z,4.30
2023-01-01T18:44:47.004Z,5.30
2023-01-01T18:50:02.182Z,4.30
2023-01-01T18:55:04.933Z,4.90
2023-01-01T19:00:22.921Z,4.90
2023-01-01T19:05:27.566Z,5.20
2023-01-01T19:10:44.540Z,5.00
2023-01-01T19:21:21.560Z,4.60
2023-01-01T19:26:25.739Z,4.20
2023-01-01T19:31:28.899Z,4.80
2023-01-01T19:36:31.780Z,4.70
2023-01-01T19:41:36.332Z,4.80
2023-01-01T19:46:39.359Z,4.50
2023-01-01T19:51:42.345Z,4.70
2023-01-01T19:56:46.673Z,5.20
2023-01-01T20:02:03.534Z,4.50
2023-01-01T20:07:12.307Z,4.90
2023-01-01T20:12:15.035Z,4.70
2023-01-01T20:17:18.461Z,5.00
2023-01-01T20:22:22.154Z,5.10
2023-01-01T20:27:27.257Z,4.50
2023-01-01T20:32:30.119Z,5.00
2023-01-01T20:37:39.101Z,4.70
2023-01-01T20:42:43.693Z,4.60
2023-01-01T20:47:46.532Z,4.70
2023-01-01T20:52:49.338Z,6.30
2023-01-01T20:57:52.225Z,5.20
2023-01-01T21:02:55.243Z,4.60
2023-01-01T21:07:59.489Z,5.00
2023-01-01T21:13:02.438Z,5.10
2023-01-01T21:18:05.807Z,5.20
2023-01-01T21:23:29.348Z,5.40
2023-01-01T21:28:33.829Z,5.60
2023-01-01T21:33:36.702Z,5.40
2023-01-01T21:38:39.825Z,5.70
2023-01-01T21:43:45.640Z,5.40
2023-01-01T21:49:02.953Z,5.00
2023-01-01T21:54:14.922Z,5.90
2023-01-01T21:59:35.567Z,5.90
2023-01-01T22:04:45.671Z,5.70
2023-01-01T22:09:57.559Z,5.50
2023-01-01T22:15:28.674Z,4.90
2023-01-01T22:20:34.805Z,6.00
2023-01-01T22:25:38.005Z,5.00
2023-01-01T22:30:42.750Z,4.80
2023-01-01T22:35:45.903Z,5.70
2023-01-01T22:40:50.669Z,5.60
2023-01-01T22:45:54.104Z,5.20
2023-01-01T22:51:02.191Z,5.00
2023-01-01T22:56:05.328Z,5.80
2023-01-01T23:01:08.100Z,5.20
2023-01-01T23:06:11.088Z,5.30
2023-01-01T23:11:13.897Z,4.80
2023-01-01T23:16:16.656Z,5.80
2023-01-01T23:21:26.762Z,5.10
2023-01-01T23:26:30.931Z,5.70
2023-01-01T23:31:34.905Z,5.30
2023-01-01T23:36:39.511Z,5.60
2023-01-01T23:41:42.357Z,5.00
2023-01-01T23:46:45.628Z,5.40
2023-01-01T23:51:48.498Z,5.80
2023-01-01T23:56:51.392Z,5.90
